sensor_id;sensor_type;location;lat;lon;timestamp;P1;durP1;ratioP1;P2;durP2;ratioP2
49296;SDS011;35163;48.878;18.040;2024-03-29T00:00:42;0.73;;;0.60;;
49296;SDS011;35163;48.878;18.040;2024-03-29T00:03:10;1.73;;;0.85;;
49296;SDS011;35163;48.878;18.040;2024-03-29T00:05:36;1.30;;;0.60;;
49296;SDS011;35163;48.878;18.040;2024-03-29T00:08:03;0.95;;;0.70;;
49296;SDS011;35163;48.878;18.040;2024-03-29T00:10:29;1.77;;;0.70;;
49296;SDS011;35163;48.878;18.040;2024-03-29T00:12:54;0.85;;;0.80;;
49296;SDS011;35163;48.878;18.040;2024-03-29T00:15:20;2.05;;;0.85;;
49296;SDS011;35163;48.878;18.040;2024-03-29T00:17:46;0.98;;;0.60;;
49296;SDS011;35163;48.878;18.040;2024-03-29T00:20:11;1.77;;;0.80;;
49296;SDS011;35163;48.878;18.040;2024-03-29T00:22:37;0.80;;;0.55;;
49296;SDS011;35163;48.878;18.040;2024-03-29T00:25:03;1.13;;;0.80;;
49296;SDS011;35163;48.878;18.040;2024-03-29T00:27:29;1.40;;;0.73;;
49296;SDS011;35163;48.878;18.040;2024-03-29T00:29:56;1.33;;;0.70;;
49296;SDS011;35163;48.878;18.040;2024-03-29T00:32:21;2.10;;;0.73;;
49296;SDS011;35163;48.878;18.040;2024-03-29T00:34:49;1.20;;;0.65;;
49296;SDS011;35163;48.878;18.040;2024-03-29T00:37:16;1.40;;;0.82;;
49296;SDS011;35163;48.878;18.040;2024-03-29T00:39:42;1.90;;;0.70;;
49296;SDS011;35163;48.878;18.040;2024-03-29T00:42:08;1.10;;;0.70;;
49296;SDS011;35163;48.878;18.040;2024-03-29T00:44:35;1.23;;;0.80;;
49296;SDS011;35163;48.878;18.040;2024-03-29T00:47:03;2.20;;;0.80;;
49296;SDS011;35163;48.878;18.040;2024-03-29T00:49:29;1.42;;;1.02;;
49296;SDS011;35163;48.878;18.040;2024-03-29T00:51:55;0.80;;;0.70;;
49296;SDS011;35163;48.878;18.040;2024-03-29T00:54:21;1.70;;;0.90;;
49296;SDS011;35163;48.878;18.040;2024-03-29T00:56:48;0.95;;;0.70;;
49296;SDS011;35163;48.878;18.040;2024-03-29T00:59:18;1.40;;;0.80;;
49296;SDS011;35163;48.878;18.040;2024-03-29T01:01:44;1.10;;;0.82;;
49296;SDS011;35163;48.878;18.040;2024-03-29T01:04:10;2.35;;;1.00;;
49296;SDS011;35163;48.878;18.040;2024-03-29T01:06:36;1.58;;;0.85;;
49296;SDS011;35163;48.878;18.040;2024-03-29T01:09:02;2.25;;;1.00;;
49296;SDS011;35163;48.878;18.040;2024-03-29T01:11:31;1.80;;;1.17;;
49296;SDS011;35163;48.878;18.040;2024-03-29T01:13:57;2.75;;;1.20;;
49296;SDS011;35163;48.878;18.040;2024-03-29T01:16:23;2.17;;;0.90;;
49296;SDS011;35163;48.878;18.040;2024-03-29T01:18:49;3.22;;;0.90;;
49296;SDS011;35163;48.878;18.040;2024-03-29T01:21:15;1.70;;;0.90;;
49296;SDS011;35163;48.878;18.040;2024-03-29T01:23:41;1.85;;;1.10;;
49296;SDS011;35163;48.878;18.040;2024-03-29T01:26:07;1.35;;;1.00;;
49296;SDS011;35163;48.878;18.040;2024-03-29T01:28:33;1.80;;;1.08;;
49296;SDS011;35163;48.878;18.040;2024-03-29T01:30:59;2.00;;;1.10;;
49296;SDS011;35163;48.878;18.040;2024-03-29T01:33:25;1.73;;;0.85;;
49296;SDS011;35163;48.878;18.040;2024-03-29T01:35:51;1.58;;;0.90;;
49296;SDS011;35163;48.878;18.040;2024-03-29T01:38:17;1.15;;;1.00;;
49296;SDS011;35163;48.878;18.040;2024-03-29T01:40:43;2.42;;;1.20;;
49296;SDS011;35163;48.878;18.040;2024-03-29T01:43:08;2.40;;;1.10;;
49296;SDS011;35163;48.878;18.040;2024-03-29T01:45:35;1.40;;;1.02;;
49296;SDS011;35163;48.878;18.040;2024-03-29T01:48:03;1.48;;;1.23;;
49296;SDS011;35163;48.878;18.040;2024-03-29T01:50:30;1.90;;;0.93;;
49296;SDS011;35163;48.878;18.040;2024-03-29T01:52:57;1.25;;;1.05;;
49296;SDS011;35163;48.878;18.040;2024-03-29T01:55:23;1.67;;;1.00;;
49296;SDS011;35163;48.878;18.040;2024-03-29T01:57:49;2.60;;;1.23;;
49296;SDS011;35163;48.878;18.040;2024-03-29T02:00:16;1.95;;;1.20;;
49296;SDS011;35163;48.878;18.040;2024-03-29T02:02:42;2.30;;;1.30;;
49296;SDS011;35163;48.878;18.040;2024-03-29T02:05:07;1.75;;;1.17;;
49296;SDS011;35163;48.878;18.040;2024-03-29T02:07:33;1.67;;;0.80;;
49296;SDS011;35163;48.878;18.040;2024-03-29T02:10:00;2.53;;;1.30;;
49296;SDS011;35163;48.878;18.040;2024-03-29T02:12:27;5.00;;;1.25;;
49296;SDS011;35163;48.878;18.040;2024-03-29T02:14:52;2.17;;;1.20;;
49296;SDS011;35163;48.878;18.040;2024-03-29T02:17:18;2.03;;;1.20;;
49296;SDS011;35163;48.878;18.040;2024-03-29T02:19:43;2.78;;;1.35;;
49296;SDS011;35163;48.878;18.040;2024-03-29T02:22:09;1.45;;;1.23;;
49296;SDS011;35163;48.878;18.040;2024-03-29T02:24:40;1.33;;;1.00;;
49296;SDS011;35163;48.878;18.040;2024-03-29T02:27:06;1.85;;;1.20;;
49296;SDS011;35163;48.878;18.040;2024-03-29T02:29:31;1.67;;;1.10;;
49296;SDS011;35163;48.878;18.040;2024-03-29T02:31:57;1.20;;;0.98;;
49296;SDS011;35163;48.878;18.040;2024-03-29T02:34:22;1.20;;;1.00;;
49296;SDS011;35163;48.878;18.040;2024-03-29T02:36:48;2.05;;;1.25;;
49296;SDS011;35163;48.878;18.040;2024-03-29T02:39:14;1.90;;;1.38;;
49296;SDS011;35163;48.878;18.040;2024-03-29T02:41:40;2.10;;;1.30;;
49296;SDS011;35163;48.878;18.040;2024-03-29T02:44:05;1.92;;;1.20;;
49296;SDS011;35163;48.878;18.040;2024-03-29T02:46:31;5.35;;;1.48;;
49296;SDS011;35163;48.878;18.040;2024-03-29T02:48:57;1.77;;;1.27;;
49296;SDS011;35163;48.878;18.040;2024-03-29T02:51:22;2.75;;;1.40;;
49296;SDS011;35163;48.878;18.040;2024-03-29T02:53:48;3.60;;;1.27;;
49296;SDS011;35163;48.878;18.040;2024-03-29T02:56:14;1.75;;;1.10;;
49296;SDS011;35163;48.878;18.040;2024-03-29T02:58:44;1.40;;;1.10;;
49296;SDS011;35163;48.878;18.040;2024-03-29T03:01:09;3.40;;;1.20;;
49296;SDS011;35163;48.878;18.040;2024-03-29T03:03:35;3.58;;;1.30;;
49296;SDS011;35163;48.878;18.040;2024-03-29T03:06:02;1.65;;;1.20;;
49296;SDS011;35163;48.878;18.040;2024-03-29T03:08:29;1.70;;;1.20;;
49296;SDS011;35163;48.878;18.040;2024-03-29T03:11:13;2.45;;;2.00;;
49296;SDS011;35163;48.878;18.040;2024-03-29T03:13:39;3.13;;;1.45;;
49296;SDS011;35163;48.878;18.040;2024-03-29T03:16:04;2.72;;;1.33;;
49296;SDS011;35163;48.878;18.040;2024-03-29T03:18:30;2.00;;;1.10;;
49296;SDS011;35163;48.878;18.040;2024-03-29T03:20:56;2.78;;;1.25;;
49296;SDS011;35163;48.878;18.040;2024-03-29T03:23:23;2.65;;;1.27;;
49296;SDS011;35163;48.878;18.040;2024-03-29T03:25:56;2.65;;;1.40;;
49296;SDS011;35163;48.878;18.040;2024-03-29T03:28:26;2.08;;;1.30;;
49296;SDS011;35163;48.878;18.040;2024-03-29T03:30:52;2.65;;;1.30;;
49296;SDS011;35163;48.878;18.040;2024-03-29T03:33:19;4.00;;;1.65;;
49296;SDS011;35163;48.878;18.040;2024-03-29T03:35:45;2.58;;;1.50;;
49296;SDS011;35163;48.878;18.040;2024-03-29T03:38:12;1.95;;;1.25;;
49296;SDS011;35163;48.878;18.040;2024-03-29T03:40:37;3.35;;;1.50;;
49296;SDS011;35163;48.878;18.040;2024-03-29T03:43:04;2.00;;;1.40;;
49296;SDS011;35163;48.878;18.040;2024-03-29T03:45:34;2.13;;;1.40;;
49296;SDS011;35163;48.878;18.040;2024-03-29T03:48:04;3.08;;;1.70;;
49296;SDS011;35163;48.878;18.040;2024-03-29T03:50:34;4.28;;;1.60;;
49296;SDS011;35163;48.878;18.040;2024-03-29T03:52:59;5.25;;;1.80;;
49296;SDS011;35163;48.878;18.040;2024-03-29T03:55:25;2.78;;;1.50;;
49296;SDS011;35163;48.878;18.040;2024-03-29T03:57:52;3.15;;;1.85;;
49296;SDS011;35163;48.878;18.040;2024-03-29T04:00:18;3.90;;;1.92;;
49296;SDS011;35163;48.878;18.040;2024-03-29T04:02:48;2.40;;;1.50;;
49296;SDS011;35163;48.878;18.040;2024-03-29T04:05:15;3.05;;;1.52;;
49296;SDS011;35163;48.878;18.040;2024-03-29T04:07:44;1.95;;;1.50;;
49296;SDS011;35163;48.878;18.040;2024-03-29T04:10:09;2.13;;;1.52;;
49296;SDS011;35163;48.878;18.040;2024-03-29T04:12:35;3.45;;;1.70;;
49296;SDS011;35163;48.878;18.040;2024-03-29T04:15:01;2.78;;;1.67;;
49296;SDS011;35163;48.878;18.040;2024-03-29T04:17:28;3.42;;;1.67;;
49296;SDS011;35163;48.878;18.040;2024-03-29T04:19:58;3.42;;;1.55;;
49296;SDS011;35163;48.878;18.040;2024-03-29T04:22:24;2.88;;;1.50;;
49296;SDS011;35163;48.878;18.040;2024-03-29T04:24:50;2.20;;;1.42;;
49296;SDS011;35163;48.878;18.040;2024-03-29T04:27:16;2.10;;;1.60;;
49296;SDS011;35163;48.878;18.040;2024-03-29T04:29:42;2.45;;;1.50;;
49296;SDS011;35163;48.878;18.040;2024-03-29T04:32:08;3.75;;;1.83;;
49296;SDS011;35163;48.878;18.040;2024-03-29T04:34:33;3.13;;;1.63;;
49296;SDS011;35163;48.878;18.040;2024-03-29T04:36:59;2.90;;;1.70;;
49296;SDS011;35163;48.878;18.040;2024-03-29T04:39:25;2.78;;;1.50;;
49296;SDS011;35163;48.878;18.040;2024-03-29T04:41:51;4.32;;;1.80;;
49296;SDS011;35163;48.878;18.040;2024-03-29T04:44:23;3.38;;;1.90;;
49296;SDS011;35163;48.878;18.040;2024-03-29T04:46:50;3.33;;;1.77;;
49296;SDS011;35163;48.878;18.040;2024-03-29T04:49:18;4.05;;;1.70;;
49296;SDS011;35163;48.878;18.040;2024-03-29T04:51:48;3.20;;;1.80;;
49296;SDS011;35163;48.878;18.040;2024-03-29T04:54:14;2.08;;;1.48;;
49296;SDS011;35163;48.878;18.040;2024-03-29T04:56:41;3.20;;;1.83;;
49296;SDS011;35163;48.878;18.040;2024-03-29T04:59:07;5.03;;;1.88;;
49296;SDS011;35163;48.878;18.040;2024-03-29T05:01:35;5.18;;;1.88;;
49296;SDS011;35163;48.878;18.040;2024-03-29T05:04:01;3.60;;;1.85;;
49296;SDS011;35163;48.878;18.040;2024-03-29T05:06:26;2.92;;;1.65;;
49296;SDS011;35163;48.878;18.040;2024-03-29T05:08:52;4.07;;;1.90;;
49296;SDS011;35163;48.878;18.040;2024-03-29T05:11:18;3.15;;;1.70;;
49296;SDS011;35163;48.878;18.040;2024-03-29T05:13:44;5.00;;;1.85;;
49296;SDS011;35163;48.878;18.040;2024-03-29T05:16:10;5.55;;;2.38;;
49296;SDS011;35163;48.878;18.040;2024-03-29T05:18:36;3.20;;;1.83;;
49296;SDS011;35163;48.878;18.040;2024-03-29T05:21:01;2.50;;;1.75;;
49296;SDS011;35163;48.878;18.040;2024-03-29T05:23:27;4.13;;;1.90;;
49296;SDS011;35163;48.878;18.040;2024-03-29T05:25:53;2.65;;;1.75;;
49296;SDS011;35163;48.878;18.040;2024-03-29T05:28:19;2.75;;;1.70;;
49296;SDS011;35163;48.878;18.040;2024-03-29T05:30:44;2.90;;;1.83;;
49296;SDS011;35163;48.878;18.040;2024-03-29T05:33:10;2.88;;;1.90;;
49296;SDS011;35163;48.878;18.040;2024-03-29T05:35:36;3.03;;;1.80;;
49296;SDS011;35163;48.878;18.040;2024-03-29T05:38:02;2.80;;;1.65;;
49296;SDS011;35163;48.878;18.040;2024-03-29T05:40:28;3.53;;;2.00;;
49296;SDS011;35163;48.878;18.040;2024-03-29T05:42:54;3.40;;;1.73;;
49296;SDS011;35163;48.878;18.040;2024-03-29T05:47:51;3.72;;;2.00;;
49296;SDS011;35163;48.878;18.040;2024-03-29T05:50:17;5.03;;;2.60;;
49296;SDS011;35163;48.878;18.040;2024-03-29T05:52:43;6.97;;;2.00;;
49296;SDS011;35163;48.878;18.040;2024-03-29T05:55:09;4.93;;;2.40;;
49296;SDS011;35163;48.878;18.040;2024-03-29T05:57:35;3.25;;;1.95;;
49296;SDS011;35163;48.878;18.040;2024-03-29T06:00:05;3.78;;;1.98;;
49296;SDS011;35163;48.878;18.040;2024-03-29T06:02:31;20.42;;;3.97;;
49296;SDS011;35163;48.878;18.040;2024-03-29T06:04:56;3.78;;;2.15;;
49296;SDS011;35163;48.878;18.040;2024-03-29T06:07:22;4.68;;;2.22;;
49296;SDS011;35163;48.878;18.040;2024-03-29T06:09:48;3.45;;;1.92;;
49296;SDS011;35163;48.878;18.040;2024-03-29T06:12:13;3.45;;;1.85;;
49296;SDS011;35163;48.878;18.040;2024-03-29T06:14:39;3.35;;;2.03;;
49296;SDS011;35163;48.878;18.040;2024-03-29T06:17:23;4.47;;;1.90;;
49296;SDS011;35163;48.878;18.040;2024-03-29T06:19:50;4.28;;;2.00;;
49296;SDS011;35163;48.878;18.040;2024-03-29T06:22:22;2.42;;;1.63;;
49296;SDS011;35163;48.878;18.040;2024-03-29T06:24:49;3.40;;;1.70;;
49296;SDS011;35163;48.878;18.040;2024-03-29T06:27:20;3.83;;;1.88;;
49296;SDS011;35163;48.878;18.040;2024-03-29T06:29:48;3.55;;;1.67;;
49296;SDS011;35163;48.878;18.040;2024-03-29T06:32:17;2.53;;;1.55;;
49296;SDS011;35163;48.878;18.040;2024-03-29T06:34:46;2.15;;;1.60;;
49296;SDS011;35163;48.878;18.040;2024-03-29T06:37:12;3.90;;;1.50;;
49296;SDS011;35163;48.878;18.040;2024-03-29T06:39:38;2.42;;;1.40;;
49296;SDS011;35163;48.878;18.040;2024-03-29T06:42:04;3.63;;;1.50;;
49296;SDS011;35163;48.878;18.040;2024-03-29T06:44:32;3.45;;;1.52;;
49296;SDS011;35163;48.878;18.040;2024-03-29T06:46:58;2.33;;;1.20;;
49296;SDS011;35163;48.878;18.040;2024-03-29T06:49:24;2.22;;;1.45;;
49296;SDS011;35163;48.878;18.040;2024-03-29T06:51:50;3.00;;;1.45;;
49296;SDS011;35163;48.878;18.040;2024-03-29T06:54:15;3.38;;;1.40;;
49296;SDS011;35163;48.878;18.040;2024-03-29T06:56:41;4.10;;;1.42;;
49296;SDS011;35163;48.878;18.040;2024-03-29T06:59:07;2.28;;;1.05;;
49296;SDS011;35163;48.878;18.040;2024-03-29T07:01:33;1.45;;;1.02;;
49296;SDS011;35163;48.878;18.040;2024-03-29T07:03:59;1.38;;;1.00;;
49296;SDS011;35163;48.878;18.040;2024-03-29T07:06:24;5.88;;;1.52;;
49296;SDS011;35163;48.878;18.040;2024-03-29T07:08:50;1.75;;;1.00;;
49296;SDS011;35163;48.878;18.040;2024-03-29T07:11:16;1.90;;;0.90;;
49296;SDS011;35163;48.878;18.040;2024-03-29T07:13:41;1.75;;;0.90;;
49296;SDS011;35163;48.878;18.040;2024-03-29T07:16:07;0.93;;;0.82;;
49296;SDS011;35163;48.878;18.040;2024-03-29T07:18:33;1.25;;;0.80;;
49296;SDS011;35163;48.878;18.040;2024-03-29T07:20:58;1.20;;;0.88;;
49296;SDS011;35163;48.878;18.040;2024-03-29T07:23:24;1.45;;;0.93;;
49296;SDS011;35163;48.878;18.040;2024-03-29T07:26:00;1.25;;;1.00;;
49296;SDS011;35163;48.878;18.040;2024-03-29T07:28:27;1.80;;;1.10;;
49296;SDS011;35163;48.878;18.040;2024-03-29T07:30:53;2.85;;;1.25;;
49296;SDS011;35163;48.878;18.040;2024-03-29T07:33:19;2.00;;;1.08;;
49296;SDS011;35163;48.878;18.040;2024-03-29T07:35:49;2.60;;;0.93;;
49296;SDS011;35163;48.878;18.040;2024-03-29T07:38:15;3.08;;;1.00;;
49296;SDS011;35163;48.878;18.040;2024-03-29T07:40:42;3.28;;;0.88;;
49296;SDS011;35163;48.878;18.040;2024-03-29T07:43:09;0.95;;;0.73;;
49296;SDS011;35163;48.878;18.040;2024-03-29T07:45:34;3.50;;;0.90;;
49296;SDS011;35163;48.878;18.040;2024-03-29T07:48:00;1.20;;;0.70;;
49296;SDS011;35163;48.878;18.040;2024-03-29T07:50:26;0.85;;;0.80;;
49296;SDS011;35163;48.878;18.040;2024-03-29T07:52:51;1.80;;;1.33;;
49296;SDS011;35163;48.878;18.040;2024-03-29T07:55:17;2.75;;;1.30;;
49296;SDS011;35163;48.878;18.040;2024-03-29T07:57:43;3.60;;;1.80;;
49296;SDS011;35163;48.878;18.040;2024-03-29T08:00:09;13.90;;;3.92;;
49296;SDS011;35163;48.878;18.040;2024-03-29T08:02:35;2.92;;;1.50;;
49296;SDS011;35163;48.878;18.040;2024-03-29T08:05:02;3.42;;;0.93;;
49296;SDS011;35163;48.878;18.040;2024-03-29T08:07:27;2.15;;;1.00;;
49296;SDS011;35163;48.878;18.040;2024-03-29T08:09:53;5.70;;;2.30;;
49296;SDS011;35163;48.878;18.040;2024-03-29T08:12:19;5.35;;;2.22;;
49296;SDS011;35163;48.878;18.040;2024-03-29T08:14:45;4.97;;;1.48;;
49296;SDS011;35163;48.878;18.040;2024-03-29T08:17:11;2.30;;;1.33;;
49296;SDS011;35163;48.878;18.040;2024-03-29T08:19:40;1.73;;;1.23;;
49296;SDS011;35163;48.878;18.040;2024-03-29T08:22:09;1.23;;;0.80;;
49296;SDS011;35163;48.878;18.040;2024-03-29T08:24:36;2.95;;;1.40;;
49296;SDS011;35163;48.878;18.040;2024-03-29T08:27:02;1.15;;;0.95;;
49296;SDS011;35163;48.878;18.040;2024-03-29T08:29:28;2.00;;;0.80;;
49296;SDS011;35163;48.878;18.040;2024-03-29T08:31:54;3.70;;;0.90;;
49296;SDS011;35163;48.878;18.040;2024-03-29T08:34:20;3.90;;;1.13;;
49296;SDS011;35163;48.878;18.040;2024-03-29T08:36:45;2.13;;;1.05;;
49296;SDS011;35163;48.878;18.040;2024-03-29T08:39:12;1.65;;;0.60;;
49296;SDS011;35163;48.878;18.040;2024-03-29T08:41:38;2.10;;;0.80;;
49296;SDS011;35163;48.878;18.040;2024-03-29T08:44:05;2.80;;;0.60;;
49296;SDS011;35163;48.878;18.040;2024-03-29T08:46:32;2.30;;;0.80;;
49296;SDS011;35163;48.878;18.040;2024-03-29T08:48:57;4.18;;;1.25;;
49296;SDS011;35163;48.878;18.040;2024-03-29T08:51:23;1.63;;;0.75;;
49296;SDS011;35163;48.878;18.040;2024-03-29T08:53:49;0.93;;;0.63;;
49296;SDS011;35163;48.878;18.040;2024-03-29T08:56:15;1.20;;;0.60;;
49296;SDS011;35163;48.878;18.040;2024-03-29T08:58:41;1.23;;;0.80;;
49296;SDS011;35163;48.878;18.040;2024-03-29T09:01:06;2.60;;;0.90;;
49296;SDS011;35163;48.878;18.040;2024-03-29T09:03:32;2.10;;;1.13;;
49296;SDS011;35163;48.878;18.040;2024-03-29T09:05:58;2.90;;;0.88;;
49296;SDS011;35163;48.878;18.040;2024-03-29T09:08:24;2.20;;;1.00;;
49296;SDS011;35163;48.878;18.040;2024-03-29T09:10:49;1.65;;;1.00;;
49296;SDS011;35163;48.878;18.040;2024-03-29T09:13:15;2.08;;;0.82;;
49296;SDS011;35163;48.878;18.040;2024-03-29T09:15:41;5.28;;;2.10;;
49296;SDS011;35163;48.878;18.040;2024-03-29T09:18:07;3.08;;;1.20;;
49296;SDS011;35163;48.878;18.040;2024-03-29T09:20:44;1.48;;;0.90;;
49296;SDS011;35163;48.878;18.040;2024-03-29T09:23:10;2.75;;;0.98;;
49296;SDS011;35163;48.878;18.040;2024-03-29T09:25:40;0.95;;;0.73;;
49296;SDS011;35163;48.878;18.040;2024-03-29T09:28:06;1.33;;;0.80;;
49296;SDS011;35163;48.878;18.040;2024-03-29T09:30:32;1.55;;;0.80;;
49296;SDS011;35163;48.878;18.040;2024-03-29T09:32:57;1.08;;;0.80;;
49296;SDS011;35163;48.878;18.040;2024-03-29T09:35:23;1.63;;;0.88;;
49296;SDS011;35163;48.878;18.040;2024-03-29T09:37:50;1.70;;;0.82;;
49296;SDS011;35163;48.878;18.040;2024-03-29T09:40:15;1.67;;;0.82;;
49296;SDS011;35163;48.878;18.040;2024-03-29T09:42:43;1.38;;;0.82;;
49296;SDS011;35163;48.878;18.040;2024-03-29T09:45:09;0.90;;;0.50;;
49296;SDS011;35163;48.878;18.040;2024-03-29T09:47:36;1.25;;;0.70;;
49296;SDS011;35163;48.878;18.040;2024-03-29T09:50:03;3.67;;;0.90;;
49296;SDS011;35163;48.878;18.040;2024-03-29T09:52:31;2.88;;;0.55;;
49296;SDS011;35163;48.878;18.040;2024-03-29T09:54:57;2.42;;;0.75;;
49296;SDS011;35163;48.878;18.040;2024-03-29T09:57:25;2.17;;;0.70;;
49296;SDS011;35163;48.878;18.040;2024-03-29T09:59:55;2.50;;;0.75;;
49296;SDS011;35163;48.878;18.040;2024-03-29T10:02:21;2.38;;;1.10;;
49296;SDS011;35163;48.878;18.040;2024-03-29T10:04:50;1.85;;;0.68;;
49296;SDS011;35163;48.878;18.040;2024-03-29T10:07:18;1.05;;;0.70;;
49296;SDS011;35163;48.878;18.040;2024-03-29T10:09:45;2.13;;;0.75;;
49296;SDS011;35163;48.878;18.040;2024-03-29T10:12:11;1.33;;;0.70;;
49296;SDS011;35163;48.878;18.040;2024-03-29T10:14:55;1.13;;;0.35;;
49296;SDS011;35163;48.878;18.040;2024-03-29T10:17:30;1.60;;;0.60;;
49296;SDS011;35163;48.878;18.040;2024-03-29T10:20:00;0.88;;;0.60;;
49296;SDS011;35163;48.878;18.040;2024-03-29T10:22:30;2.25;;;0.57;;
49296;SDS011;35163;48.878;18.040;2024-03-29T10:25:00;1.83;;;0.65;;
49296;SDS011;35163;48.878;18.040;2024-03-29T10:27:26;2.67;;;0.60;;
49296;SDS011;35163;48.878;18.040;2024-03-29T10:29:53;1.17;;;0.50;;
49296;SDS011;35163;48.878;18.040;2024-03-29T10:32:19;1.63;;;0.70;;
49296;SDS011;35163;48.878;18.040;2024-03-29T10:34:44;2.38;;;0.65;;
49296;SDS011;35163;48.878;18.040;2024-03-29T10:37:10;2.72;;;0.52;;
49296;SDS011;35163;48.878;18.040;2024-03-29T10:39:41;0.75;;;0.40;;
49296;SDS011;35163;48.878;18.040;2024-03-29T10:42:08;3.05;;;0.70;;
49296;SDS011;35163;48.878;18.040;2024-03-29T10:44:36;2.50;;;0.73;;
49296;SDS011;35163;48.878;18.040;2024-03-29T10:47:05;2.20;;;0.55;;
49296;SDS011;35163;48.878;18.040;2024-03-29T10:49:32;2.50;;;0.80;;
49296;SDS011;35163;48.878;18.040;2024-03-29T10:51:59;1.85;;;0.50;;
49296;SDS011;35163;48.878;18.040;2024-03-29T10:54:25;1.98;;;0.63;;
49296;SDS011;35163;48.878;18.040;2024-03-29T10:56:54;2.63;;;0.68;;
49296;SDS011;35163;48.878;18.040;2024-03-29T10:59:37;1.77;;;0.50;;
49296;SDS011;35163;48.878;18.040;2024-03-29T11:03:05;2.50;;;0.60;;
49296;SDS011;35163;48.878;18.040;2024-03-29T11:05:28;4.25;;;0.70;;
49296;SDS011;35163;48.878;18.040;2024-03-29T11:07:57;1.75;;;0.80;;
49296;SDS011;35163;48.878;18.040;2024-03-29T11:15:40;3.28;;;0.90;;
49296;SDS011;35163;48.878;18.040;2024-03-29T11:18:08;6.93;;;0.93;;
49296;SDS011;35163;48.878;18.040;2024-03-29T11:20:36;4.00;;;0.75;;
49296;SDS011;35163;48.878;18.040;2024-03-29T11:23:06;6.20;;;1.02;;
49296;SDS011;35163;48.878;18.040;2024-03-29T11:25:48;1.70;;;0.77;;
49296;SDS011;35163;48.878;18.040;2024-03-29T11:28:22;1.48;;;0.65;;
49296;SDS011;35163;48.878;18.040;2024-03-29T11:30:50;5.10;;;1.63;;
49296;SDS011;35163;48.878;18.040;2024-03-29T11:33:27;2.38;;;0.90;;
49296;SDS011;35163;48.878;18.040;2024-03-29T11:35:57;4.30;;;1.10;;
49296;SDS011;35163;48.878;18.040;2024-03-29T11:38:36;3.70;;;1.00;;
49296;SDS011;35163;48.878;18.040;2024-03-29T11:41:03;3.50;;;0.90;;
49296;SDS011;35163;48.878;18.040;2024-03-29T11:43:30;4.32;;;1.10;;
49296;SDS011;35163;48.878;18.040;2024-03-29T11:45:57;2.25;;;0.70;;
49296;SDS011;35163;48.878;18.040;2024-03-29T11:48:26;5.55;;;0.80;;
49296;SDS011;35163;48.878;18.040;2024-03-29T11:50:53;1.95;;;0.70;;
49296;SDS011;35163;48.878;18.040;2024-03-29T11:53:19;3.83;;;1.15;;
49296;SDS011;35163;48.878;18.040;2024-03-29T11:55:45;4.93;;;1.10;;
49296;SDS011;35163;48.878;18.040;2024-03-29T11:58:11;2.92;;;1.30;;
49296;SDS011;35163;48.878;18.040;2024-03-29T12:00:38;2.78;;;0.95;;
49296;SDS011;35163;48.878;18.040;2024-03-29T12:03:05;3.63;;;1.20;;
49296;SDS011;35163;48.878;18.040;2024-03-29T12:05:32;6.50;;;1.30;;
49296;SDS011;35163;48.878;18.040;2024-03-29T12:07:58;2.60;;;0.70;;
49296;SDS011;35163;48.878;18.040;2024-03-29T12:10:28;1.75;;;0.82;;
49296;SDS011;35163;48.878;18.040;2024-03-29T12:12:57;3.53;;;1.10;;
49296;SDS011;35163;48.878;18.040;2024-03-29T12:15:28;4.13;;;0.95;;
49296;SDS011;35163;48.878;18.040;2024-03-29T12:17:58;4.85;;;1.00;;
49296;SDS011;35163;48.878;18.040;2024-03-29T12:20:30;4.28;;;0.90;;
49296;SDS011;35163;48.878;18.040;2024-03-29T12:22:59;4.78;;;1.20;;
49296;SDS011;35163;48.878;18.040;2024-03-29T12:25:26;3.83;;;0.85;;
49296;SDS011;35163;48.878;18.040;2024-03-29T12:27:52;4.18;;;0.88;;
49296;SDS011;35163;48.878;18.040;2024-03-29T12:30:19;3.92;;;0.93;;
49296;SDS011;35163;48.878;18.040;2024-03-29T12:32:45;3.33;;;0.85;;
49296;SDS011;35163;48.878;18.040;2024-03-29T12:35:12;7.63;;;1.00;;
49296;SDS011;35163;48.878;18.040;2024-03-29T12:37:47;5.40;;;1.08;;
49296;SDS011;35163;48.878;18.040;2024-03-29T12:40:15;6.10;;;1.00;;
49296;SDS011;35163;48.878;18.040;2024-03-29T12:42:47;4.60;;;0.90;;
49296;SDS011;35163;48.878;18.040;2024-03-29T12:45:20;4.13;;;0.98;;
49296;SDS011;35163;48.878;18.040;2024-03-29T12:47:47;4.75;;;1.17;;
49296;SDS011;35163;48.878;18.040;2024-03-29T12:50:19;5.90;;;1.05;;
49296;SDS011;35163;48.878;18.040;2024-03-29T12:52:50;4.45;;;1.35;;
49296;SDS011;35163;48.878;18.040;2024-03-29T12:55:19;5.80;;;1.10;;
49296;SDS011;35163;48.878;18.040;2024-03-29T12:57:45;4.80;;;1.10;;
49296;SDS011;35163;48.878;18.040;2024-03-29T13:00:11;5.15;;;1.10;;
49296;SDS011;35163;48.878;18.040;2024-03-29T13:02:36;4.00;;;1.02;;
49296;SDS011;35163;48.878;18.040;2024-03-29T13:05:03;4.95;;;1.70;;
49296;SDS011;35163;48.878;18.040;2024-03-29T13:07:32;5.50;;;1.60;;
49296;SDS011;35163;48.878;18.040;2024-03-29T13:10:01;3.55;;;1.17;;
49296;SDS011;35163;48.878;18.040;2024-03-29T13:12:31;5.10;;;1.27;;
49296;SDS011;35163;48.878;18.040;2024-03-29T13:15:01;2.45;;;0.80;;
49296;SDS011;35163;48.878;18.040;2024-03-29T13:17:31;3.58;;;1.00;;
49296;SDS011;35163;48.878;18.040;2024-03-29T13:19:57;6.00;;;1.77;;
49296;SDS011;35163;48.878;18.040;2024-03-29T13:22:23;25.80;;;1.92;;
49296;SDS011;35163;48.878;18.040;2024-03-29T13:24:48;6.43;;;1.40;;
49296;SDS011;35163;48.878;18.040;2024-03-29T13:27:15;5.88;;;1.30;;
49296;SDS011;35163;48.878;18.040;2024-03-29T13:29:41;3.80;;;0.93;;
49296;SDS011;35163;48.878;18.040;2024-03-29T13:32:07;8.07;;;1.13;;
49296;SDS011;35163;48.878;18.040;2024-03-29T13:34:33;5.43;;;1.40;;
49296;SDS011;35163;48.878;18.040;2024-03-29T13:36:59;5.45;;;1.30;;
49296;SDS011;35163;48.878;18.040;2024-03-29T13:39:25;10.50;;;3.95;;
49296;SDS011;35163;48.878;18.040;2024-03-29T13:41:50;6.03;;;2.10;;
49296;SDS011;35163;48.878;18.040;2024-03-29T13:44:18;4.90;;;1.55;;
49296;SDS011;35163;48.878;18.040;2024-03-29T13:46:44;10.80;;;1.52;;
49296;SDS011;35163;48.878;18.040;2024-03-29T13:49:09;5.03;;;1.13;;
49296;SDS011;35163;48.878;18.040;2024-03-29T13:51:37;4.53;;;1.10;;
49296;SDS011;35163;48.878;18.040;2024-03-29T13:54:03;10.95;;;1.40;;
49296;SDS011;35163;48.878;18.040;2024-03-29T13:56:29;4.93;;;1.20;;
49296;SDS011;35163;48.878;18.040;2024-03-29T13:58:54;5.22;;;1.33;;
49296;SDS011;35163;48.878;18.040;2024-03-29T14:01:20;5.40;;;1.60;;
49296;SDS011;35163;48.878;18.040;2024-03-29T14:03:46;9.85;;;1.52;;
49296;SDS011;35163;48.878;18.040;2024-03-29T14:06:11;6.05;;;1.30;;
49296;SDS011;35163;48.878;18.040;2024-03-29T14:08:37;3.17;;;1.23;;
49296;SDS011;35163;48.878;18.040;2024-03-29T14:11:03;4.72;;;1.45;;
49296;SDS011;35163;48.878;18.040;2024-03-29T14:13:29;2.53;;;1.08;;
49296;SDS011;35163;48.878;18.040;2024-03-29T14:15:54;3.60;;;1.13;;
49296;SDS011;35163;48.878;18.040;2024-03-29T14:18:21;5.50;;;1.20;;
49296;SDS011;35163;48.878;18.040;2024-03-29T14:20:47;6.35;;;1.60;;
49296;SDS011;35163;48.878;18.040;2024-03-29T14:23:12;6.32;;;1.00;;
49296;SDS011;35163;48.878;18.040;2024-03-29T14:25:41;4.97;;;1.33;;
49296;SDS011;35163;48.878;18.040;2024-03-29T14:28:07;8.77;;;1.92;;
49296;SDS011;35163;48.878;18.040;2024-03-29T14:30:33;5.22;;;1.50;;
49296;SDS011;35163;48.878;18.040;2024-03-29T14:32:59;4.60;;;1.08;;
49296;SDS011;35163;48.878;18.040;2024-03-29T14:35:32;5.72;;;1.35;;
49296;SDS011;35163;48.878;18.040;2024-03-29T14:37:58;6.65;;;1.70;;
49296;SDS011;35163;48.878;18.040;2024-03-29T14:40:24;7.10;;;1.95;;